Pagina principale
METAR-TAF:

METAR-TAF

Aeroporti :

Base aerea di Aviano

Aviano, Italia

latitudine: 46-02N, longitudine: 012-36E, altezza: 128 m

Osservazione

Il bollettino è stato emesso 39 minuti fa, alle 09:55 UTC
Vento 5 kt da est/sud-est
Temperature 10°C
Umidità 57%
Pressione 1015 hPa
Visibilità 10 km o più
Nubi sparse ad un'altezza di 9000 ft

METAR: LIPA 090955Z 11005KT 9999 SCT090 10/02 Q1015 RMK SCT VIS MIN 9999 WIND THR05 /////KT WIND THR23 /////KT A3000 BLU

Ora: 11:34 (10:34 UTC)

Previsione

Il bollettino è stato emesso 2 ore e 34 minuti fa, alle 08:00 UTC
Previsione valida dal 09 alle 09 UTC al 09 alle 18 UTC
Vento 6 kt da est
Visibilità 10 km o più
Nubi sparse ad un'altezza di 8000 ft

TAF: LIPA 090800Z 0909/0918 09006KT 9999 SCT080

Osservazioni e previsioni meteorologiche di più di 4000 aeroporti (messaggi METAR e TAF).

Le stazioni disponibili sono rappresentate dai dischi gialli e rossi sulla carta.

Puntare il mouse per vedere il nome della stazione.

Clicca sopra per visualizzare le osservazioni e previsioni meteorologiche.

Per cambiare la mappa : fare clic sui pulsanti verdi con una croce nera per ingrandire, il pulsante verde con un trattino per diminuire, o sulla freccia verde per le mappe adiacenti.


METAR-TAF: